Time;durP1;ratioP1;P1;durP2;ratioP2;P2;SDS_P1;SDS_P2;PMS_P1;PMS_P2;Temp;Humidity;BMP_temperature;BMP_pressure;BME280_temperature;BME280_humidity;BME280_pressure;Samples;Min_cycle;Max_cycle;Signal;HPM_P1;HPM_P2
2023/04/09 00:02:14;;;;;;;47.80;29.77;;;;;;;2.51;100.00;102068.09;4915626;29;20433;-74
2023/04/09 00:04:40;;;;;;;51.08;31.00;;;;;;;2.49;100.00;102072.66;4914835;29;20052;-74
2023/04/09 00:07:07;;;;;;;49.85;30.23;;;;;;;2.41;100.00;102063.28;4897752;29;20047;-74
2023/04/09 00:09:34;;;;;;;48.38;29.35;;;;;;;2.39;100.00;102075.72;4904818;29;20044;-73
2023/04/09 00:12:01;;;;;;;46.45;30.10;;;;;;;2.37;100.00;102064.38;4915030;29;20052;-74
2023/04/09 00:14:27;;;;;;;48.67;30.35;;;;;;;2.36;100.00;102072.38;4914146;29;20056;-75
2023/04/09 00:16:54;;;;;;;51.65;31.60;;;;;;;2.32;100.00;102070.81;4915244;29;20136;-75
2023/04/09 00:19:20;;;;;;;48.65;29.45;;;;;;;2.31;100.00;102069.09;4914355;29;20044;-74
2023/04/09 00:21:47;;;;;;;48.55;29.92;;;;;;;2.31;100.00;102066.44;4915142;29;20131;-74
2023/04/09 00:24:14;;;;;;;53.47;30.90;;;;;;;2.25;100.00;102070.25;4897828;29;20082;-74
2023/04/09 00:26:40;;;;;;;48.65;30.52;;;;;;;2.19;100.00;102073.16;4897586;29;20481;-74
2023/04/09 00:29:07;;;;;;;49.85;30.25;;;;;;;2.08;100.00;102067.53;4896045;29;20052;-74
2023/04/09 00:31:33;;;;;;;53.28;31.75;;;;;;;2.13;100.00;102068.16;4895681;29;20416;-75
2023/04/09 00:34:00;;;;;;;46.35;29.17;;;;;;;2.12;100.00;102069.09;4896223;29;20048;-75
2023/04/09 00:36:26;;;;;;;50.05;31.85;;;;;;;2.13;100.00;102065.50;4895789;29;20049;-74
2023/04/09 00:38:53;;;;;;;55.90;32.85;;;;;;;2.12;100.00;102067.31;4897074;29;20055;-75
2023/04/09 00:41:20;;;;;;;52.63;31.33;;;;;;;2.06;100.00;102069.38;4895981;29;20045;-75
2023/04/09 00:43:46;;;;;;;51.75;31.33;;;;;;;1.93;100.00;102063.81;4896023;29;20062;-75
2023/04/09 00:46:13;;;;;;;51.03;31.15;;;;;;;1.91;100.00;102055.91;4885755;29;20137;-75
2023/04/09 00:48:40;;;;;;;51.40;31.38;;;;;;;2.01;100.00;102061.66;4895867;29;20417;-76
2023/04/09 00:51:07;;;;;;;51.45;31.55;;;;;;;2.06;100.00;102070.25;4895721;29;20053;-75
2023/04/09 00:53:34;;;;;;;55.08;32.22;;;;;;;2.02;100.00;102059.88;4895479;29;20052;-75
2023/04/09 00:56:01;;;;;;;54.95;33.45;;;;;;;1.90;100.00;102062.13;4894355;29;20063;-74
2023/04/09 00:58:28;;;;;;;56.83;34.78;;;;;;;1.86;100.00;102063.22;4894182;29;20485;-75
2023/04/09 01:00:54;;;;;;;52.65;32.13;;;;;;;2.01;100.00;102066.09;4890754;29;20045;-75
2023/04/09 01:03:21;;;;;;;53.17;31.77;;;;;;;1.98;100.00;102066.25;4894943;29;20387;-75
2023/04/09 01:09:46;;;;;;;52.25;31.65;;;;;;;1.95;100.00;102067.25;4894776;29;20048;-75
2023/04/09 01:12:31;;;;;;;52.05;31.48;;;;;;;1.87;100.00;102064.91;4894326;29;20059;-75
2023/04/09 01:15:04;;;;;;;53.25;31.55;;;;;;;1.90;100.00;102070.06;4894751;29;20514;-75
2023/04/09 01:17:43;;;;;;;57.30;33.00;;;;;;;1.84;100.00;102067.72;4893587;29;20505;-75
2023/04/09 01:20:21;;;;;;;51.38;32.25;;;;;;;1.70;100.00;102068.34;4894560;29;20413;-75
2023/04/09 01:23:00;;;;;;;53.33;31.63;;;;;;;1.87;100.00;102070.22;4894786;29;20478;-75
2023/04/09 01:25:41;;;;;;;52.42;30.55;;;;;;;1.86;100.00;102065.84;4902107;29;20470;-74
2023/04/09 01:28:18;;;;;;;51.08;32.15;;;;;;;1.85;100.00;102064.13;4913454;29;20666;-75
2023/04/09 01:30:49;;;;;;;53.42;31.58;;;;;;;1.79;100.00;102067.06;4913336;29;20048;-74
2023/04/09 01:33:18;;;;;;;57.17;31.65;;;;;;;1.75;100.00;102065.50;4913923;29;20083;-74
2023/04/09 01:35:47;;;;;;;51.85;31.35;;;;;;;1.74;100.00;102066.41;4912789;29;20055;-74
2023/04/09 01:38:17;;;;;;;51.63;30.92;;;;;;;1.72;100.00;102071.78;4913007;29;20052;-74
2023/04/09 01:40:44;;;;;;;56.22;33.45;;;;;;;1.65;100.00;102064.19;4913306;29;20059;-74
2023/04/09 01:43:12;;;;;;;58.55;33.25;;;;;;;1.58;100.00;102073.34;4915259;29;20048;-72
2023/04/09 01:45:39;;;;;;;53.90;31.45;;;;;;;1.54;100.00;102075.25;4935734;29;20075;-70
2023/04/09 01:48:06;;;;;;;53.22;31.45;;;;;;;1.62;100.00;102075.78;4935554;29;20048;-71
2023/04/09 01:50:34;;;;;;;51.17;30.73;;;;;;;1.52;100.00;102071.81;4935594;29;20067;-71
2023/04/09 01:53:01;;;;;;;51.53;31.10;;;;;;;1.34;100.00;102062.06;4934832;29;20079;-72
2023/04/09 01:55:28;;;;;;;53.03;31.58;;;;;;;1.49;100.00;102064.03;4935817;29;20073;-70
2023/04/09 01:57:54;;;;;;;46.83;30.15;;;;;;;1.54;100.00;102071.75;4934953;29;20048;-71
2023/04/09 02:00:22;;;;;;;44.88;27.80;;;;;;;1.47;100.00;102072.03;4934850;29;20048;-72
2023/04/09 02:03:06;;;;;;;50.25;30.20;;;;;;;1.42;100.00;102081.94;4935179;29;20058;-70
2023/04/09 02:05:40;;;;;;;51.63;30.15;;;;;;;1.41;100.00;102079.38;4918008;29;20043;-71
2023/04/09 02:08:11;;;;;;;47.65;29.35;;;;;;;1.38;100.00;102080.38;4936114;29;20028;-70
2023/04/09 02:10:39;;;;;;;35.85;21.35;;;;;;;1.41;100.00;102077.59;4934553;29;20079;-71
2023/04/09 02:13:11;;;;;;;48.80;29.52;;;;;;;1.37;100.00;102083.94;4935536;29;20055;-70
2023/04/09 02:15:39;;;;;;;48.33;29.77;;;;;;;1.31;100.00;102086.00;4934378;29;20063;-72
2023/04/09 02:18:20;;;;;;;53.28;30.42;;;;;;;1.29;100.00;102078.13;4930573;29;20052;-71
2023/04/09 02:20:46;;;;;;;50.53;30.10;;;;;;;1.33;100.00;102081.47;4925297;29;20044;-72
2023/04/09 02:23:15;;;;;;;51.95;30.95;;;;;;;1.20;100.00;102081.19;4934782;29;20056;-75
2023/04/09 02:25:43;;;;;;;51.92;31.05;;;;;;;1.14;100.00;102078.78;4934841;29;20131;-73
2023/04/09 02:28:09;;;;;;;56.28;32.90;;;;;;;1.14;100.00;102082.28;4935668;29;20092;-70
2023/04/09 02:30:36;;;;;;;53.95;31.65;;;;;;;1.11;100.00;102087.69;4934873;29;20112;-71
2023/04/09 02:33:03;;;;;;;55.45;33.25;;;;;;;1.20;100.00;102083.81;4934764;29;20046;-72
2023/04/09 02:35:29;;;;;;;54.00;32.33;;;;;;;1.20;100.00;102091.75;4934404;29;20062;-71
2023/04/09 02:37:56;;;;;;;50.38;31.05;;;;;;;1.12;100.00;102086.75;4934875;29;20062;-70
2023/04/09 02:40:22;;;;;;;51.95;31.70;;;;;;;1.17;100.00;102082.16;4935297;29;20059;-69
2023/04/09 02:42:53;;;;;;;54.85;33.42;;;;;;;1.15;100.00;102085.78;4935493;29;20099;-71
2023/04/09 02:45:19;;;;;;;38.10;22.60;;;;;;;1.12;100.00;102080.63;4935278;29;20028;-72
2023/04/09 02:47:46;;;;;;;54.63;32.33;;;;;;;0.98;100.00;102076.78;4935046;29;20131;-72
2023/04/09 02:50:12;;;;;;;59.75;34.80;;;;;;;0.94;100.00;102077.00;4936258;29;20052;-71
2023/04/09 02:52:39;;;;;;;52.65;32.53;;;;;;;0.91;100.00;102079.75;4935411;29;20121;-73
2023/04/09 02:55:07;;;;;;;54.22;32.10;;;;;;;0.89;100.00;102073.69;4935197;29;20055;-72
2023/04/09 02:57:33;;;;;;;55.03;33.80;;;;;;;0.92;100.00;102074.44;4935602;29;20051;-70
2023/04/09 02:59:59;;;;;;;58.42;33.03;;;;;;;0.97;100.00;102077.72;4918286;29;20054;-69
2023/04/09 03:02:26;;;;;;;53.30;32.70;;;;;;;0.84;100.00;102076.50;4935199;29;20112;-70
2023/04/09 03:04:53;;;;;;;60.10;34.25;;;;;;;0.81;100.00;102074.00;4934983;29;20036;-70
2023/04/09 03:07:19;;;;;;;54.60;33.83;;;;;;;0.76;100.00;102070.69;4935332;29;20044;-71
2023/04/09 03:09:46;;;;;;;57.75;34.00;;;;;;;0.88;100.00;102069.31;4931811;29;20052;-73
2023/04/09 03:12:12;;;;;;;59.03;34.15;;;;;;;0.85;100.00;102066.78;4935919;29;20051;-70
2023/04/09 03:14:39;;;;;;;61.70;35.88;;;;;;;0.77;100.00;102059.19;4935378;29;20120;-70
2023/04/09 03:17:05;;;;;;;57.00;34.63;;;;;;;0.80;100.00;102069.63;4934308;29;20060;-70
2023/04/09 03:19:31;;;;;;;59.13;35.20;;;;;;;0.78;100.00;102063.59;4935764;29;20044;-71
2023/04/09 03:21:58;;;;;;;59.42;36.15;;;;;;;0.75;100.00;102061.06;4935938;29;20060;-70
2023/04/09 03:24:24;;;;;;;54.70;34.20;;;;;;;0.80;100.00;102060.84;4939457;29;20062;-70
2023/04/09 03:26:51;;;;;;;57.08;34.80;;;;;;;0.85;100.00;102061.50;4939085;29;20044;-72
2023/04/09 03:29:18;;;;;;;57.13;33.85;;;;;;;0.80;100.00;102066.16;4938904;29;20032;-73
2023/04/09 03:31:44;;;;;;;56.97;34.83;;;;;;;0.78;100.00;102055.66;4938735;29;20493;-72
2023/04/09 03:34:11;;;;;;;56.80;33.78;;;;;;;0.66;100.00;102061.44;4939744;29;20048;-70
2023/04/09 03:36:37;;;;;;;57.70;33.00;;;;;;;0.64;100.00;102057.97;4921232;29;20058;-72
2023/04/09 03:39:04;;;;;;;56.10;34.00;;;;;;;0.63;100.00;102061.56;4938841;29;20062;-71
2023/04/09 03:41:30;;;;;;;57.38;35.35;;;;;;;0.65;100.00;102059.72;4938662;29;20052;-71
2023/04/09 03:43:57;;;;;;;55.47;35.15;;;;;;;0.66;100.00;102062.28;4938443;29;20103;-71
2023/04/09 03:46:24;;;;;;;54.95;32.75;;;;;;;0.65;100.00;102055.28;4938972;29;20108;-70
2023/04/09 03:48:50;;;;;;;54.58;33.53;;;;;;;0.70;100.00;102050.66;4937937;29;20297;-70
2023/04/09 03:51:17;;;;;;;63.67;34.00;;;;;;;0.56;100.00;102055.66;4938971;29;20044;-72
2023/04/09 03:53:44;;;;;;;52.70;33.17;;;;;;;0.52;100.00;102057.56;4938235;29;20046;-71
2023/04/09 03:56:10;;;;;;;57.20;33.90;;;;;;;0.53;100.00;102051.34;4938293;29;20028;-69
2023/04/09 03:58:37;;;;;;;56.95;34.28;;;;;;;0.43;100.00;102055.28;4937626;29;20048;-73
2023/04/09 04:01:03;;;;;;;51.70;31.98;;;;;;;0.53;100.00;102061.06;4921830;29;20052;-71
2023/04/09 04:03:30;;;;;;;56.45;32.08;;;;;;;0.54;100.00;102065.44;4938235;29;20100;-70
2023/04/09 04:06:01;;;;;;;59.20;34.67;;;;;;;0.39;100.00;102061.63;4938334;29;20071;-69
2023/04/09 04:08:28;;;;;;;53.55;33.33;;;;;;;0.45;100.00;102069.31;4937254;29;20052;-70
2023/04/09 04:10:55;;;;;;;49.47;30.52;;;;;;;0.48;100.00;102061.25;4937118;29;20116;-70
2023/04/09 04:13:21;;;;;;;53.75;32.58;;;;;;;0.46;100.00;102070.16;4936071;29;20112;-72
2023/04/09 04:15:48;;;;;;;51.40;31.95;;;;;;;0.42;100.00;102071.22;4937214;29;20048;-71
2023/04/09 04:18:14;;;;;;;51.17;31.35;;;;;;;0.36;100.00;102064.38;4933609;29;20067;-70
2023/04/09 04:20:41;;;;;;;55.63;32.38;;;;;;;0.41;100.00;102059.78;4938033;29;20048;-71
2023/04/09 04:23:07;;;;;;;53.35;31.88;;;;;;;0.51;100.00;102062.94;4919083;29;20464;-73
2023/04/09 04:25:34;;;;;;;56.30;33.05;;;;;;;0.40;100.00;102070.41;4914461;29;20062;-74
2023/04/09 04:28:01;;;;;;;56.25;33.13;;;;;;;0.45;100.00;102069.31;4913787;29;20052;-73
2023/04/09 04:30:27;;;;;;;53.70;33.35;;;;;;;0.41;100.00;102065.06;4914171;29;20523;-73
2023/04/09 04:32:54;;;;;;;50.97;31.50;;;;;;;0.42;100.00;102074.69;4914861;29;20486;-73
2023/04/09 04:35:20;;;;;;;57.58;33.85;;;;;;;0.38;100.00;102078.41;4915154;29;20055;-74
2023/04/09 04:37:50;;;;;;;50.80;31.95;;;;;;;0.40;100.00;102078.31;4915124;29;20131;-73
2023/04/09 04:40:16;;;;;;;53.92;32.58;;;;;;;0.38;100.00;102082.81;4915235;29;20048;-73
2023/04/09 04:42:43;;;;;;;54.17;32.05;;;;;;;0.38;100.00;102075.75;4915536;29;20056;-73
2023/04/09 04:45:10;;;;;;;54.45;32.25;;;;;;;0.41;100.00;102077.41;4914182;29;20055;-73
2023/04/09 04:47:36;;;;;;;53.88;30.90;;;;;;;0.34;100.00;102076.81;4914529;29;20058;-75
2023/04/09 04:50:03;;;;;;;55.47;33.53;;;;;;;0.32;100.00;102077.78;4914482;29;20104;-73
2023/04/09 04:52:30;;;;;;;52.63;30.50;;;;;;;0.37;100.00;102084.59;4914577;29;20197;-75
2023/04/09 04:54:57;;;;;;;53.58;31.40;;;;;;;0.41;100.00;102077.41;4913899;29;20060;-74
2023/04/09 04:57:23;;;;;;;56.08;31.50;;;;;;;0.31;100.00;102086.63;4924171;29;20048;-71
2023/04/09 04:59:50;;;;;;;53.88;32.35;;;;;;;0.38;100.00;102091.59;4936937;29;20546;-71
2023/04/09 05:02:16;;;;;;;52.75;30.58;;;;;;;0.34;100.00;102097.91;4936956;29;20063;-74
2023/04/09 05:04:43;;;;;;;49.83;30.20;;;;;;;0.41;100.00;102096.75;4930366;29;20044;-71
2023/04/09 05:07:09;;;;;;;53.05;31.40;;;;;;;0.42;100.00;102098.47;4927934;29;20083;-72
2023/04/09 05:09:36;;;;;;;50.30;30.42;;;;;;;0.52;100.00;102098.97;4937456;29;20071;-70
2023/04/09 05:12:02;;;;;;;53.10;31.30;;;;;;;0.46;100.00;102107.97;4937086;29;20038;-71
2023/04/09 05:14:29;;;;;;;54.03;31.10;;;;;;;0.38;100.00;102099.50;4937978;29;20492;-70
2023/04/09 05:16:55;;;;;;;54.65;32.70;;;;;;;0.33;100.00;102105.88;4928614;29;20079;-71
2023/04/09 05:19:22;;;;;;;56.38;32.30;;;;;;;0.43;100.00;102105.47;4937008;29;20036;-70
2023/04/09 05:21:49;;;;;;;56.85;32.00;;;;;;;0.52;100.00;102107.75;4937095;29;20095;-73
2023/04/09 05:24:15;;;;;;;57.40;34.40;;;;;;;0.52;100.00;102104.25;4937105;29;20032;-71
2023/04/09 05:26:42;;;;;;;75.72;36.17;;;;;;;0.41;100.00;102107.31;4924784;29;20412;-73
2023/04/09 05:29:08;;;;;;;61.60;35.08;;;;;;;0.35;100.00;102111.97;4915534;29;20075;-74
2023/04/09 05:31:35;;;;;;;60.38;35.67;;;;;;;0.35;100.00;102104.91;4915408;29;20084;-73
2023/04/09 05:34:01;;;;;;;73.72;37.40;;;;;;;0.30;100.00;102112.16;4915153;29;20052;-74
2023/04/09 05:36:28;;;;;;;60.90;34.88;;;;;;;0.35;100.00;102120.75;4915716;29;20046;-74
2023/04/09 05:38:54;;;;;;;82.53;35.42;;;;;;;0.41;100.00;102115.25;4915989;29;20051;-74
2023/04/09 05:41:21;;;;;;;64.63;36.10;;;;;;;0.36;100.00;102113.69;4916049;29;20048;-73
2023/04/09 05:43:47;;;;;;;144.00;38.78;;;;;;;0.39;100.00;102117.06;4915761;29;20051;-71
2023/04/09 05:46:14;;;;;;;73.28;39.13;;;;;;;0.31;100.00;102119.16;4915739;29;20056;-73
2023/04/09 05:48:40;;;;;;;144.02;41.13;;;;;;;0.27;100.00;102118.41;4902323;29;20052;-70
2023/04/09 05:51:08;;;;;;;160.00;42.22;;;;;;;0.23;100.00;102113.31;4935173;29;20056;-70
2023/04/09 05:53:34;;;;;;;119.78;42.80;;;;;;;0.19;100.00;102114.34;4936388;29;20128;-70
2023/04/09 05:56:01;;;;;;;86.40;43.92;;;;;;;0.18;100.00;102118.75;4935142;29;20052;-71
2023/04/09 05:58:28;;;;;;;89.63;44.05;;;;;;;0.31;100.00;102119.16;4935013;29;20063;-71
2023/04/09 06:00:55;;;;;;;103.40;46.63;;;;;;;0.45;100.00;102116.81;4931042;29;20075;-71
2023/04/09 06:03:21;;;;;;;95.78;47.67;;;;;;;0.48;100.00;102119.34;4935067;29;20043;-72
2023/04/09 06:05:49;;;;;;;90.53;47.80;;;;;;;0.52;100.00;102123.59;4935189;29;20086;-73
2023/04/09 06:08:16;;;;;;;114.30;46.67;;;;;;;0.57;100.00;102114.63;4936159;29;20060;-72
2023/04/09 06:10:42;;;;;;;94.40;46.63;;;;;;;0.71;100.00;102120.19;4935508;29;20080;-72
2023/04/09 06:13:09;;;;;;;103.35;47.90;;;;;;;0.74;100.00;102117.44;4935075;29;20056;-72
2023/04/09 06:15:37;;;;;;;94.75;48.15;;;;;;;0.80;100.00;102117.19;4935325;29;20048;-71
2023/04/09 06:18:04;;;;;;;96.85;48.58;;;;;;;0.86;100.00;102118.72;4934450;29;20052;-71
2023/04/09 06:20:30;;;;;;;98.55;48.45;;;;;;;0.96;100.00;102109.50;4934902;29;20048;-71
2023/04/09 06:22:57;;;;;;;93.22;47.65;;;;;;;1.05;100.00;102111.75;4933623;29;20356;-71
2023/04/09 06:25:24;;;;;;;94.13;47.75;;;;;;;1.15;100.00;102113.06;4932348;29;20055;-71
2023/04/09 06:27:51;;;;;;;113.68;51.90;;;;;;;1.04;100.00;102109.19;4933645;29;20063;-74
2023/04/09 06:30:17;;;;;;;90.63;46.83;;;;;;;1.29;100.00;102112.47;4934649;29;20073;-70
2023/04/09 06:32:44;;;;;;;83.32;46.17;;;;;;;1.33;100.00;102107.91;4931172;29;20036;-72
2023/04/09 06:35:20;;;;;;;86.03;47.40;;;;;;;1.65;100.00;102122.41;4936039;29;20044;-71
2023/04/09 06:37:47;;;;;;;88.85;46.47;;;;;;;1.67;100.00;102118.72;4937152;29;20040;-71
2023/04/09 06:40:14;;;;;;;82.95;45.55;;;;;;;1.66;100.00;102118.81;4930901;29;20036;-71
2023/04/09 06:42:40;;;;;;;84.63;46.15;;;;;;;1.72;100.00;102115.91;4936455;29;20063;-72
2023/04/09 06:45:07;;;;;;;87.72;46.88;;;;;;;1.98;100.00;102112.09;4936855;29;20055;-70
2023/04/09 06:47:34;;;;;;;96.47;48.47;;;;;;;2.11;100.00;102118.53;4919206;29;20111;-74
2023/04/09 06:50:02;;;;;;;78.70;45.90;;;;;;;2.26;100.00;102118.75;4912660;29;20126;-74
2023/04/09 06:52:28;;;;;;;77.32;44.53;;;;;;;2.48;100.00;102118.59;4911406;29;20054;-73
2023/04/09 06:54:54;;;;;;;76.55;43.22;;;;;;;2.42;100.00;102115.31;4921885;29;20048;-75
2023/04/09 06:57:21;;;;;;;71.70;42.55;;;;;;;2.87;100.00;102121.97;4937937;29;20059;-72
2023/04/09 06:59:47;;;;;;;71.22;41.53;;;;;;;2.83;100.00;102124.84;4937736;29;20048;-72
2023/04/09 07:02:14;;;;;;;69.28;41.47;;;;;;;3.12;100.00;102124.22;4937743;29;20048;-71
2023/04/09 07:04:41;;;;;;;67.63;41.75;;;;;;;3.30;100.00;102133.03;4938779;29;20056;-74
2023/04/09 07:07:08;;;;;;;70.07;41.67;;;;;;;3.49;100.00;102127.66;4938465;29;20056;-74
2023/04/09 07:09:34;;;;;;;72.63;42.20;;;;;;;3.69;100.00;102128.41;4938772;29;20073;-73
2023/04/09 07:12:01;;;;;;;65.88;39.78;;;;;;;3.91;100.00;102134.28;4937279;29;20578;-72
2023/04/09 07:14:27;;;;;;;62.80;38.78;;;;;;;4.23;100.00;102140.50;4935332;29;20067;-72
2023/04/09 07:16:54;;;;;;;57.10;35.72;;;;;;;4.93;100.00;102133.03;4928903;29;20135;-73
2023/04/09 07:19:20;;;;;;;56.53;36.35;;;;;;;5.20;100.00;102132.38;4927125;29;20493;-75
2023/04/09 07:21:47;;;;;;;57.00;35.72;;;;;;;5.44;100.00;102130.91;4934534;29;20048;-73
2023/04/09 07:24:13;;;;;;;53.50;34.92;;;;;;;5.76;100.00;102136.94;4933804;29;20397;-74
2023/04/09 07:26:40;;;;;;;55.42;34.78;;;;;;;6.19;100.00;102131.59;4930738;29;20056;-73
2023/04/09 07:29:06;;;;;;;48.72;32.70;;;;;;;6.64;100.00;102131.44;4927318;29;20399;-71
2023/04/09 07:31:33;;;;;;;54.17;33.70;;;;;;;6.69;100.00;102126.66;4932199;29;20088;-73
2023/04/09 07:34:01;;;;;;;50.00;32.95;;;;;;;7.08;100.00;102128.47;4929533;29;20055;-74
2023/04/09 07:36:28;;;;;;;56.53;34.72;;;;;;;7.22;100.00;102132.03;4928621;29;20055;-74
2023/04/09 07:38:54;;;;;;;49.03;32.42;;;;;;;6.92;100.00;102135.81;4928130;29;20054;-73
2023/04/09 07:41:21;;;;;;;49.20;32.83;;;;;;;7.18;100.00;102132.25;4926991;29;20116;-74
2023/04/09 07:43:47;;;;;;;47.53;32.38;;;;;;;7.45;100.00;102134.00;4929783;29;20075;-74
2023/04/09 07:46:20;;;;;;;47.70;32.17;;;;;;;7.86;100.00;102138.31;4927282;29;20073;-74
2023/04/09 07:48:48;;;;;;;44.92;31.23;;;;;;;8.47;100.00;102133.94;4929410;29;20056;-73
2023/04/09 07:51:15;;;;;;;46.38;31.42;;;;;;;8.53;100.00;102132.63;4929777;29;20103;-74
2023/04/09 07:53:42;;;;;;;44.28;31.15;;;;;;;8.12;100.00;102133.78;4923959;29;20059;-74
2023/04/09 07:56:08;;;;;;;42.75;31.00;;;;;;;8.41;100.00;102133.53;4923468;29;20054;-74
2023/04/09 07:58:36;;;;;;;42.95;31.25;;;;;;;7.72;100.00;102141.06;4922813;29;20059;-73
2023/04/09 08:01:03;;;;;;;43.03;30.35;;;;;;;8.13;100.00;102147.06;4917883;29;20590;-74
2023/04/09 08:03:30;;;;;;;44.13;30.77;;;;;;;8.31;100.00;102139.53;4922734;29;20051;-74
2023/04/09 08:05:57;;;;;;;49.20;32.80;;;;;;;8.58;100.00;102139.34;4919681;29;20056;-73
2023/04/09 08:08:23;;;;;;;41.38;30.80;;;;;;;8.83;100.00;102138.38;4922046;29;20462;-74
2023/04/09 08:10:50;;;;;;;45.22;31.02;;;;;;;9.19;100.00;102135.72;4910076;29;20115;-74
2023/04/09 08:13:16;;;;;;;58.13;33.50;;;;;;;8.86;100.00;102139.97;4927226;29;20055;-74
2023/04/09 08:15:43;;;;;;;46.85;32.72;;;;;;;9.06;100.00;102139.34;4923809;29;20054;-73
2023/04/09 08:18:09;;;;;;;46.25;33.17;;;;;;;9.09;100.00;102144.47;4914041;29;20048;-74
2023/04/09 08:20:36;;;;;;;46.65;32.60;;;;;;;9.29;100.00;102145.66;4920793;29;20052;-73
2023/04/09 08:23:03;;;;;;;46.50;32.72;;;;;;;9.37;100.00;102144.22;4938440;23;20433;-75
2023/04/09 08:25:29;;;;;;;50.58;34.85;;;;;;;9.54;99.68;102150.00;4951922;23;20044;-73
2023/04/09 08:27:56;;;;;;;51.10;34.20;;;;;;;9.69;98.63;102147.09;4919274;29;20139;-74
2023/04/09 08:30:23;;;;;;;44.75;32.00;;;;;;;9.26;100.00;102148.56;4899030;29;20087;-74
2023/04/09 08:32:50;;;;;;;47.28;30.65;;;;;;;9.18;100.00;102147.41;4893922;29;20405;-74
2023/04/09 08:35:16;;;;;;;46.88;31.45;;;;;;;9.50;98.93;102155.69;4898202;29;20057;-74
2023/04/09 08:37:43;;;;;;;40.72;29.23;;;;;;;9.19;99.78;102149.13;4897578;29;20045;-73
2023/04/09 08:40:10;;;;;;;41.88;30.92;;;;;;;9.10;100.00;102161.38;4895906;29;20077;-73
2023/04/09 08:42:46;;;;;;;42.85;30.05;;;;;;;9.69;93.66;102157.81;4895296;29;20052;-74
2023/04/09 08:45:13;;;;;;;43.05;30.15;;;;;;;10.07;93.87;102156.63;4897120;29;20049;-70
2023/04/09 08:47:42;;;;;;;40.13;29.40;;;;;;;10.00;89.38;102165.16;4902838;29;20132;-71
2023/04/09 08:50:09;;;;;;;43.58;30.40;;;;;;;9.37;93.96;102163.84;4901633;29;20072;-69
2023/04/09 08:52:37;;;;;;;42.80;30.52;;;;;;;9.57;94.56;102159.59;4894522;29;20049;-70
2023/04/09 08:55:03;;;;;;;41.55;29.98;;;;;;;9.61;96.25;102157.53;4902095;29;20143;-71
2023/04/09 08:57:36;;;;;;;49.13;33.42;;;;;;;9.70;99.68;102157.69;4898585;29;20055;-76
2023/04/09 09:00:03;;;;;;;45.13;33.20;;;;;;;9.47;97.08;102148.78;4896582;29;20055;-74
2023/04/09 09:02:30;;;;;;;73.82;35.75;;;;;;;9.94;93.03;102154.06;4908642;29;20040;-74
2023/04/09 09:04:59;;;;;;;41.75;30.58;;;;;;;10.32;89.92;102142.97;4914647;29;20067;-75
2023/04/09 09:07:30;;;;;;;39.60;28.98;;;;;;;10.77;83.71;102145.56;4914332;29;20548;-76
2023/04/09 09:10:03;;;;;;;40.53;28.73;;;;;;;10.93;81.57;102147.84;4915464;29;20449;-76
2023/04/09 09:12:31;;;;;;;36.28;27.20;;;;;;;10.64;82.87;102152.94;4914964;29;20055;-80
2023/04/09 09:14:58;;;;;;;35.45;27.23;;;;;;;10.99;78.33;102142.78;4912891;29;20437;-76
2023/04/09 09:17:25;;;;;;;33.65;26.17;;;;;;;11.55;74.59;102144.38;4915293;29;20462;-76
2023/04/09 09:19:52;;;;;;;32.10;26.02;;;;;;;11.29;74.59;102145.72;4905003;29;20405;-75
2023/04/09 09:22:18;;;;;;;32.50;25.65;;;;;;;11.90;69.31;102140.50;4915277;29;20051;-72
2023/04/09 09:24:50;;;;;;;34.25;26.80;;;;;;;11.73;70.81;102144.63;4911738;29;20044;-73
2023/04/09 09:27:35;;;;;;;35.88;27.00;;;;;;;11.88;69.00;102140.59;4915350;29;20486;-73
2023/04/09 09:30:04;;;;;;;36.63;28.02;;;;;;;12.51;66.00;102142.25;4905948;29;20051;-72
2023/04/09 09:32:34;;;;;;;34.35;27.08;;;;;;;11.86;67.70;102141.72;4913245;29;20138;-73
2023/04/09 09:35:05;;;;;;;36.25;28.65;;;;;;;11.76;68.81;102141.69;4913999;29;20055;-73
2023/04/09 09:37:33;;;;;;;33.90;26.73;;;;;;;11.93;69.36;102134.81;4914281;29;20108;-72
2023/04/09 09:40:00;;;;;;;34.45;26.67;;;;;;;12.12;66.20;102139.44;4913816;29;20131;-73
2023/04/09 09:42:28;;;;;;;34.20;27.02;;;;;;;12.79;62.22;102137.91;4896343;29;20112;-72
2023/04/09 09:44:55;;;;;;;34.00;27.58;;;;;;;12.53;64.23;102138.44;4906418;29;20047;-71
2023/04/09 09:47:22;;;;;;;37.80;28.77;;;;;;;12.22;64.89;102134.94;4913218;29;20339;-71
2023/04/09 09:49:50;;;;;;;31.85;26.63;;;;;;;12.45;64.17;102126.63;4906673;29;20111;-71
2023/04/09 09:52:23;;;;;;;32.33;26.35;;;;;;;13.00;62.08;102129.72;4910467;29;20050;-72
2023/04/09 09:54:52;;;;;;;32.55;25.70;;;;;;;12.38;63.52;102120.94;4912462;29;20044;-72
2023/04/09 09:57:21;;;;;;;33.58;27.02;;;;;;;13.19;59.71;102121.63;4912106;29;20044;-71
2023/04/09 09:59:54;;;;;;;33.97;27.27;;;;;;;12.82;60.88;102119.63;4913654;29;20048;-72
2023/04/09 10:02:25;;;;;;;33.45;27.58;;;;;;;13.62;58.76;102114.88;4913555;29;20045;-71
2023/04/09 10:04:52;;;;;;;34.88;27.33;;;;;;;13.26;60.05;102113.81;4911855;29;20091;-71
2023/04/09 10:07:21;;;;;;;30.33;26.30;;;;;;;13.10;59.24;102112.53;4913055;29;20417;-72
2023/04/09 10:09:53;;;;;;;50.20;27.23;;;;;;;12.77;60.46;102118.38;4913361;29;20557;-72
2023/04/09 10:12:22;;;;;;;30.67;26.23;;;;;;;12.87;59.47;102111.16;4912850;29;20050;-71
2023/04/09 10:14:51;;;;;;;30.77;24.63;;;;;;;12.62;60.91;102112.50;4904154;29;20048;-71
2023/04/09 10:17:19;;;;;;;33.75;26.73;;;;;;;12.83;60.83;102105.19;4913041;29;20128;-70
2023/04/09 10:20:00;;;;;;;32.15;27.40;;;;;;;13.68;59.25;102108.91;4912799;29;20052;-72
2023/04/09 10:22:30;;;;;;;33.63;26.35;;;;;;;13.23;61.16;102106.03;4895708;29;20072;-71
2023/04/09 10:24:58;;;;;;;32.78;27.98;;;;;;;12.76;63.06;102104.03;4912669;29;20497;-72
2023/04/09 10:27:27;;;;;;;36.03;27.83;;;;;;;12.38;63.43;102104.81;4912714;29;20127;-73
2023/04/09 10:29:53;;;;;;;35.30;28.13;;;;;;;12.39;65.08;102107.38;4912635;29;20417;-72
2023/04/09 10:32:25;;;;;;;37.33;28.98;;;;;;;12.25;63.81;102107.78;4917398;29;20066;-71
2023/04/09 10:34:56;;;;;;;33.88;28.63;;;;;;;12.08;65.77;102119.19;4916453;29;20131;-71
2023/04/09 10:37:26;;;;;;;32.97;27.75;;;;;;;12.74;65.26;102107.84;4916150;29;20462;-71
2023/04/09 10:39:53;;;;;;;35.97;28.10;;;;;;;11.73;67.09;102109.69;4917108;29;20559;-71
2023/04/09 10:42:26;;;;;;;35.53;29.65;;;;;;;11.90;65.59;102109.06;4916966;29;20658;-71
2023/04/09 10:45:10;;;;;;;33.70;27.92;;;;;;;12.27;66.72;102107.63;4916390;29;20051;-71
2023/04/09 10:47:39;;;;;;;39.85;27.85;;;;;;;11.80;67.25;102110.84;4916039;29;20416;-71
2023/04/09 10:50:26;;;;;;;38.75;28.95;;;;;;;11.51;69.15;102115.19;4917362;29;20131;-74
2023/04/09 10:52:59;;;;;;;34.42;27.75;;;;;;;11.90;67.04;102110.91;4916601;29;20044;-73
2023/04/09 10:55:40;;;;;;;36.03;27.45;;;;;;;11.89;69.37;102109.19;4915919;29;20059;-71
2023/04/09 10:58:10;;;;;;;35.85;28.13;;;;;;;11.97;68.57;102112.06;4916905;29;20397;-72
2023/04/09 11:00:41;;;;;;;36.03;28.10;;;;;;;12.02;66.30;102119.72;4917226;29;20063;-71
2023/04/09 11:03:07;;;;;;;34.40;27.20;;;;;;;12.16;66.10;102111.28;4916545;29;20493;-72
2023/04/09 11:05:39;;;;;;;34.40;26.00;;;;;;;11.82;67.81;102108.03;4916070;29;20428;-73
2023/04/09 11:08:08;;;;;;;35.38;26.92;;;;;;;11.95;67.79;102110.50;4916316;29;20076;-72
2023/04/09 11:10:36;;;;;;;37.55;27.15;;;;;;;11.83;67.49;102110.59;4916337;29;20424;-71
2023/04/09 11:13:03;;;;;;;33.85;25.33;;;;;;;11.64;70.53;102105.91;4916136;29;20051;-71
2023/04/09 11:15:33;;;;;;;35.85;26.17;;;;;;;11.75;68.70;102107.69;4916854;29;20048;-71
2023/04/09 11:18:00;;;;;;;36.60;25.80;;;;;;;11.83;69.14;102101.66;4916614;29;20416;-71